Time;durP1;ratioP1;P1;durP2;ratioP2;P2;SDS_P1;SDS_P2;PMS_P1;PMS_P2;Temp;Humidity;BMP_temperature;BMP_pressure;BME280_temperature;BME280_humidity;BME280_pressure;Samples;Min_cycle;Max_cycle;Signal;HPM_P1;HPM_P2
2021/06/06 00:00:30;;;;;;;14.73;13.32;;;18.40;99.90;;;;;;2057758;28;20027;-71
2021/06/06 00:01:40;;;;;;;14.90;13.50;;;18.40;99.90;;;;;;2064942;28;20033;-71
2021/06/06 00:02:46;;;;;;;15.60;14.00;;;18.40;99.90;;;;;;2064508;28;20038;-70
2021/06/06 00:03:50;;;;;;;14.63;12.60;;;18.40;99.90;;;;;;2065426;28;20030;-71
2021/06/06 00:04:51;;;;;;;14.50;13.10;;;18.40;99.90;;;;;;2053863;28;20423;-71
2021/06/06 00:06:02;;;;;;;13.85;12.45;;;18.40;99.90;;;;;;2056943;28;20058;-71
2021/06/06 00:07:03;;;;;;;14.35;13.05;;;18.40;99.90;;;;;;2063590;28;20034;-70
2021/06/06 00:08:07;;;;;;;13.27;12.00;;;18.40;99.90;;;;;;2056074;28;20117;-70
2021/06/06 00:09:14;;;;;;;12.77;11.55;;;18.40;99.90;;;;;;2055783;28;20066;-70
2021/06/06 00:10:18;;;;;;;12.77;11.50;;;18.40;99.90;;;;;;2055850;28;20041;-70
2021/06/06 00:11:24;;;;;;;13.23;11.90;;;18.40;99.90;;;;;;2056027;28;20057;-70
2021/06/06 00:12:25;;;;;;;13.10;11.80;;;18.40;99.90;;;;;;2064439;28;20505;-70
2021/06/06 00:13:27;;;;;;;13.80;12.40;;;18.40;99.90;;;;;;2064230;28;20438;-69
2021/06/06 00:14:31;;;;;;;14.38;12.98;;;18.40;99.90;;;;;;2063560;28;20512;-70
2021/06/06 00:15:32;;;;;;;14.70;13.20;;;18.40;99.90;;;;;;2064548;28;20026;-70
2021/06/06 00:16:37;;;;;;;14.50;13.07;;;18.40;99.90;;;;;;2055846;28;20581;-70
2021/06/06 00:17:38;;;;;;;14.18;12.75;;;18.40;99.90;;;;;;2057042;28;20536;-70
2021/06/06 00:18:39;;;;;;;14.18;12.77;;;18.40;99.90;;;;;;2056298;28;20031;-71
2021/06/06 00:19:40;;;;;;;15.32;13.73;;;18.40;99.90;;;;;;2056531;28;20031;-70
2021/06/06 00:20:41;;;;;;;14.75;13.25;;;18.30;99.90;;;;;;2065462;28;20031;-70
2021/06/06 00:21:42;;;;;;;14.27;12.88;;;18.40;99.90;;;;;;2065197;28;20081;-70
2021/06/06 00:22:43;;;;;;;13.93;12.52;;;18.30;99.90;;;;;;2064589;28;20852;-71
2021/06/06 00:23:44;;;;;;;13.85;12.45;;;18.30;99.90;;;;;;2064576;28;20088;-69
2021/06/06 00:24:45;;;;;;;14.35;12.85;;;18.30;99.90;;;;;;2063618;28;20022;-69
2021/06/06 00:25:46;;;;;;;14.73;13.23;;;18.30;99.90;;;;;;2048205;29;20035;-70
2021/06/06 00:26:47;;;;;;;15.75;14.05;;;18.30;99.90;;;;;;2047722;28;20571;-71
2021/06/06 00:27:47;;;;;;;15.63;14.02;;;18.30;99.90;;;;;;2064356;28;20018;-71
2021/06/06 00:28:48;;;;;;;16.13;14.45;;;18.30;99.90;;;;;;2063638;28;20078;-70
2021/06/06 00:29:49;;;;;;;16.45;14.85;;;18.30;99.90;;;;;;2063653;28;20569;-70
2021/06/06 00:30:51;;;;;;;16.38;14.88;;;18.30;99.90;;;;;;2064125;28;20053;-71
2021/06/06 00:31:52;;;;;;;16.60;14.98;;;18.30;99.90;;;;;;2055668;28;20430;-70
2021/06/06 00:32:53;;;;;;;17.27;15.57;;;18.30;99.90;;;;;;2055852;28;20054;-71
2021/06/06 00:33:54;;;;;;;17.70;15.98;;;18.30;99.90;;;;;;2056828;28;20031;-70
2021/06/06 00:34:56;;;;;;;16.55;14.95;;;18.30;99.90;;;;;;2064160;28;20018;-70
2021/06/06 00:35:57;;;;;;;18.25;16.20;;;18.30;99.90;;;;;;2048844;28;20643;-71
2021/06/06 00:36:58;;;;;;;17.65;15.88;;;18.30;99.90;;;;;;2056710;28;20442;-69
2021/06/06 00:38:03;;;;;;;18.02;16.33;;;18.30;99.90;;;;;;2064789;28;20026;-71
2021/06/06 00:39:05;;;;;;;18.40;16.60;;;18.20;99.90;;;;;;2064637;28;20041;-70
2021/06/06 00:40:08;;;;;;;19.20;17.17;;;18.20;99.90;;;;;;2065009;28;20455;-71
2021/06/06 00:41:13;;;;;;;19.02;17.13;;;18.20;99.90;;;;;;2063800;28;20029;-70
2021/06/06 00:42:17;;;;;;;17.80;16.08;;;18.10;99.90;;;;;;2064695;28;20026;-67
2021/06/06 00:43:20;;;;;;;18.65;16.65;;;18.10;99.90;;;;;;2065186;28;20034;-70
2021/06/06 00:44:24;;;;;;;18.42;16.52;;;18.10;99.90;;;;;;2064473;28;20027;-70
2021/06/06 00:45:28;;;;;;;17.85;16.15;;;18.10;99.90;;;;;;2065390;28;20069;-69
2021/06/06 00:46:30;;;;;;;17.33;15.63;;;18.00;99.90;;;;;;2057637;28;20034;-69
2021/06/06 00:47:33;;;;;;;17.42;15.65;;;18.00;99.90;;;;;;2065530;28;20064;-70
2021/06/06 00:48:36;;;;;;;16.75;15.10;;;18.00;99.90;;;;;;2065015;28;20030;-69
2021/06/06 00:49:36;;;;;;;17.15;15.45;;;18.00;99.90;;;;;;2065253;28;20046;-71
2021/06/06 00:50:41;;;;;;;17.13;15.32;;;18.00;99.90;;;;;;2057075;28;20031;-69
2021/06/06 00:51:47;;;;;;;17.70;16.00;;;18.00;99.90;;;;;;2049644;28;20043;-70
2021/06/06 00:52:50;;;;;;;17.27;15.48;;;18.00;99.90;;;;;;2057867;28;20031;-71
2021/06/06 00:54:07;;;;;;;16.88;15.27;;;18.00;99.90;;;;;;2065798;28;20018;-70
2021/06/06 00:55:10;;;;;;;16.40;14.82;;;18.00;99.90;;;;;;2057106;28;20090;-69
2021/06/06 00:56:17;;;;;;;16.73;15.13;;;18.00;99.90;;;;;;2050017;28;20038;-71
2021/06/06 00:57:26;;;;;;;17.77;16.05;;;18.00;99.90;;;;;;2065041;28;20030;-71
2021/06/06 00:58:34;;;;;;;19.23;17.33;;;18.00;99.90;;;;;;2064982;28;20038;-71
2021/06/06 00:59:40;;;;;;;19.23;17.08;;;18.00;99.90;;;;;;2065153;28;20045;-71
2021/06/06 01:00:53;;;;;;;18.48;16.67;;;18.00;99.90;;;;;;2057899;28;20038;-71
2021/06/06 01:01:54;;;;;;;19.08;17.17;;;18.00;99.90;;;;;;2065543;28;20576;-72
2021/06/06 01:02:56;;;;;;;19.48;17.58;;;17.90;99.90;;;;;;2065152;28;20036;-72
2021/06/06 01:04:00;;;;;;;18.92;17.02;;;17.90;99.90;;;;;;2065271;28;20026;-69
2021/06/06 01:05:08;;;;;;;19.40;17.40;;;17.90;99.90;;;;;;2058784;28;20084;-70
2021/06/06 01:06:34;;;;;;;19.27;17.27;;;17.90;99.90;;;;;;2051401;28;20031;-69
2021/06/06 01:07:35;;;;;;;19.73;17.73;;;17.90;99.90;;;;;;2047014;28;20081;-71
2021/06/06 01:08:40;;;;;;;19.52;17.63;;;17.90;99.90;;;;;;2057001;28;20022;-70
2021/06/06 01:09:42;;;;;;;20.02;18.02;;;17.90;99.90;;;;;;2057130;28;20049;-70
2021/06/06 01:10:44;;;;;;;21.30;19.20;;;17.90;99.90;;;;;;2049174;28;20390;-70
2021/06/06 01:12:17;;;;;;;20.20;18.20;;;17.80;99.90;;;;;;2057386;28;20042;-70
2021/06/06 01:13:41;;;;;;;20.13;18.02;;;17.80;99.90;;;;;;2065487;28;20039;-69
2021/06/06 01:14:53;;;;;;;21.30;19.20;;;17.80;99.90;;;;;;2064867;28;20790;-69
2021/06/06 01:16:02;;;;;;;21.25;19.00;;;17.80;99.90;;;;;;2065123;28;20026;-70
2021/06/06 01:17:08;;;;;;;18.80;16.98;;;17.70;99.90;;;;;;2056949;28;20031;-71
2021/06/06 01:18:30;;;;;;;19.02;17.15;;;17.70;99.90;;;;;;2057866;28;20031;-70
2021/06/06 01:19:49;;;;;;;19.25;17.20;;;17.70;99.90;;;;;;2056856;28;20027;-70
2021/06/06 01:21:10;;;;;;;19.80;17.35;;;17.70;99.90;;;;;;2051471;28;20031;-71
2021/06/06 01:22:20;;;;;;;;;;;17.70;99.90;;;;;;2059960;28;20027;-71
2021/06/06 01:23:44;;;;;;;19.23;17.33;;;17.70;99.90;;;;;;2065604;28;19960;-72
2021/06/06 01:24:55;;;;;;;19.45;17.45;;;17.70;99.90;;;;;;2064788;28;20030;-70
2021/06/06 01:26:01;;;;;;;17.87;16.07;;;17.70;99.90;;;;;;2057005;28;20376;-71
2021/06/06 01:27:10;;;;;;;18.25;16.45;;;17.70;99.90;;;;;;2057270;28;20023;-70
2021/06/06 01:28:26;;;;;;;18.63;16.75;;;17.70;99.90;;;;;;2056847;28;20141;-72
2021/06/06 01:29:47;;;;;;;18.83;16.83;;;17.70;99.90;;;;;;2049699;28;20039;-71
2021/06/06 01:30:54;;;;;;;20.55;18.35;;;17.70;99.90;;;;;;2056172;28;20038;-72
2021/06/06 01:32:04;;;;;;;19.23;17.33;;;17.70;99.90;;;;;;2049428;28;20031;-72
2021/06/06 01:33:31;;;;;;;22.33;19.23;;;17.60;99.90;;;;;;2056426;28;20050;-72
2021/06/06 01:34:35;;;;;;;20.80;18.58;;;17.70;99.90;;;;;;2059290;28;20422;-72
2021/06/06 01:35:44;;;;;;;21.67;19.35;;;17.60;99.90;;;;;;2056554;28;20034;-72
2021/06/06 01:37:04;;;;;;;21.17;18.98;;;17.60;99.90;;;;;;2057752;28;20027;-72
2021/06/06 01:38:31;;;;;;;21.40;19.30;;;17.70;99.90;;;;;;2048600;29;20549;-71
2021/06/06 01:39:37;;;;;;;21.27;18.67;;;17.70;99.90;;;;;;2052359;28;20061;-70
2021/06/06 01:40:40;;;;;;;19.67;17.67;;;17.70;99.90;;;;;;2057298;28;20057;-71
2021/06/06 01:41:47;;;;;;;19.50;17.27;;;17.70;99.90;;;;;;2048502;29;20050;-71
2021/06/06 01:43:05;;;;;;;19.13;17.13;;;17.70;99.90;;;;;;2041270;29;20431;-71
2021/06/06 01:44:13;;;;;;;18.63;16.73;;;17.70;99.90;;;;;;2050035;28;20038;-71
2021/06/06 01:45:36;;;;;;;17.27;15.60;;;17.70;99.90;;;;;;2048471;29;20035;-71
2021/06/06 01:46:42;;;;;;;18.05;16.27;;;17.70;99.90;;;;;;2056286;28;20094;-71
2021/06/06 01:47:47;;;;;;;18.17;16.38;;;17.80;99.90;;;;;;2056602;28;20542;-71
2021/06/06 01:48:49;;;;;;;19.08;17.08;;;17.80;99.90;;;;;;2048482;29;20075;-73
2021/06/06 01:49:56;;;;;;;17.23;15.52;;;17.80;99.90;;;;;;2048641;28;20058;-71
2021/06/06 01:51:05;;;;;;;16.90;15.20;;;17.80;99.90;;;;;;2056375;28;20364;-71
2021/06/06 01:52:10;;;;;;;18.90;16.65;;;17.80;99.90;;;;;;2048482;29;20491;-72
2021/06/06 01:53:14;;;;;;;16.63;14.93;;;17.90;99.90;;;;;;2048447;28;20038;-71
2021/06/06 01:54:22;;;;;;;16.40;14.80;;;17.90;99.90;;;;;;2047663;29;20114;-69
2021/06/06 01:55:30;;;;;;;16.63;15.00;;;17.90;99.90;;;;;;2049481;28;20024;-71
2021/06/06 01:56:36;;;;;;;18.10;16.30;;;17.90;99.90;;;;;;2057159;28;20497;-71
2021/06/06 01:57:40;;;;;;;17.85;16.05;;;17.90;99.90;;;;;;2048468;29;20141;-71
2021/06/06 01:58:44;;;;;;;18.25;15.88;;;17.90;99.90;;;;;;2041149;29;20608;-71
2021/06/06 01:59:51;;;;;;;17.52;15.50;;;17.90;99.90;;;;;;2041028;29;20034;-72
2021/06/06 02:01:06;;;;;;;18.10;16.20;;;17.90;99.90;;;;;;2049515;28;20035;-70
2021/06/06 02:02:12;;;;;;;18.35;16.45;;;17.90;99.90;;;;;;2056258;28;20045;-70
2021/06/06 02:03:15;;;;;;;17.95;15.98;;;17.80;99.90;;;;;;2057329;28;20058;-70
2021/06/06 02:04:17;;;;;;;18.10;16.25;;;17.90;99.90;;;;;;2056386;28;20030;-70
2021/06/06 02:05:19;;;;;;;17.60;15.90;;;17.80;99.90;;;;;;2051395;28;20022;-70
2021/06/06 02:06:27;;;;;;;16.63;14.93;;;17.80;99.90;;;;;;2059907;28;20126;-70
2021/06/06 02:07:31;;;;;;;17.13;15.43;;;17.80;99.90;;;;;;2060165;28;20081;-70
2021/06/06 02:08:41;;;;;;;17.10;15.48;;;17.80;99.90;;;;;;2057946;28;20092;-70
2021/06/06 02:10:21;;;;;;;;;;;17.80;99.90;;;;;;2057035;28;20038;-70
2021/06/06 02:11:34;;;;;;;18.23;16.42;;;17.80;99.90;;;;;;2024312;29;19938;-70
2021/06/06 02:12:40;;;;;;;17.98;16.27;;;17.80;99.90;;;;;;2048350;28;20511;-71
2021/06/06 02:13:50;;;;;;;17.85;16.00;;;17.80;99.90;;;;;;2057663;28;20050;-70
2021/06/06 02:14:53;;;;;;;17.30;15.48;;;17.80;99.90;;;;;;2065148;28;20569;-69
2021/06/06 02:16:04;;;;;;;17.02;15.32;;;17.80;99.90;;;;;;2057011;28;20031;-69
2021/06/06 02:17:15;;;;;;;16.42;14.80;;;17.80;99.90;;;;;;2058467;28;20054;-72
2021/06/06 02:18:29;;;;;;;18.15;16.25;;;17.80;99.90;;;;;;2064993;28;20705;-69
2021/06/06 02:19:34;;;;;;;17.23;15.52;;;17.80;99.90;;;;;;2056414;28;20035;-71
2021/06/06 02:20:47;;;;;;;17.90;16.10;;;17.80;99.90;;;;;;2058159;28;20023;-71
2021/06/06 02:21:48;;;;;;;17.20;15.40;;;17.80;99.90;;;;;;2064495;28;20125;-70
2021/06/06 02:22:53;;;;;;;16.95;15.25;;;17.80;99.90;;;;;;2064818;28;20461;-70
2021/06/06 02:23:57;;;;;;;16.40;14.70;;;17.80;99.90;;;;;;2056687;28;20045;-70
2021/06/06 02:24:59;;;;;;;17.15;15.45;;;17.80;99.90;;;;;;2055602;28;20058;-70
2021/06/06 02:26:16;;;;;;;15.98;14.38;;;17.80;99.90;;;;;;2056426;28;20050;-72
2021/06/06 02:27:33;;;;;;;15.45;13.85;;;17.80;99.90;;;;;;2056265;28;20511;-70
2021/06/06 02:29:22;;;;;;;14.05;12.65;;;17.80;99.90;;;;;;2058596;28;20099;-71
2021/06/06 02:30:50;;;;;;;15.00;13.60;;;17.80;99.90;;;;;;2059088;28;20038;-71
2021/06/06 02:32:14;;;;;;;17.02;15.32;;;17.80;99.90;;;;;;2054447;28;20042;-70
2021/06/06 02:33:44;;;;;;;14.98;13.48;;;17.70;99.90;;;;;;2056283;28;20518;-71
2021/06/06 02:35:19;;;;;;;17.88;14.57;;;17.80;99.90;;;;;;2050408;28;20050;-70
2021/06/06 02:36:27;;;;;;;15.73;14.13;;;17.70;99.90;;;;;;2058133;28;20026;-70
2021/06/06 02:37:47;;;;;;;15.55;13.95;;;17.80;99.90;;;;;;2064741;28;20105;-69
2021/06/06 02:39:17;;;;;;;16.17;13.45;;;17.80;99.90;;;;;;2064423;28;20089;-69
2021/06/06 02:40:39;;;;;;;14.85;13.45;;;17.80;99.90;;;;;;2065067;28;20038;-69
2021/06/06 02:42:02;;;;;;;15.63;14.13;;;17.80;99.90;;;;;;2064489;28;20049;-69
2021/06/06 02:43:30;;;;;;;17.33;15.52;;;17.80;99.90;;;;;;2064561;28;20165;-70
2021/06/06 02:44:46;;;;;;;18.30;16.40;;;17.80;99.90;;;;;;2051071;28;20031;-69
2021/06/06 02:45:51;;;;;;;17.50;15.80;;;17.80;99.90;;;;;;2058745;28;20027;-70
2021/06/06 02:46:53;;;;;;;16.48;14.80;;;17.80;99.90;;;;;;2065087;28;20138;-70
2021/06/06 02:48:05;;;;;;;17.10;15.40;;;17.80;99.90;;;;;;2064148;28;20051;-70
2021/06/06 02:49:13;;;;;;;20.27;18.17;;;17.90;99.90;;;;;;2057321;28;20625;-71
2021/06/06 02:50:23;;;;;;;18.67;16.77;;;17.90;99.90;;;;;;2064453;28;20058;-71
2021/06/06 02:51:29;;;;;;;17.73;15.98;;;17.90;99.90;;;;;;2064981;28;20037;-71
2021/06/06 02:52:40;;;;;;;18.33;16.42;;;17.90;99.90;;;;;;2064319;28;20568;-69
2021/06/06 02:53:58;;;;;;;18.20;16.40;;;17.90;99.90;;;;;;2064525;28;20029;-70
2021/06/06 02:55:03;;;;;;;18.67;16.77;;;17.90;99.90;;;;;;2064046;28;20033;-70
2021/06/06 02:56:15;;;;;;;17.35;15.65;;;18.00;99.90;;;;;;2065617;28;20456;-69
2021/06/06 02:57:19;;;;;;;16.85;15.15;;;17.90;99.90;;;;;;2064631;28;20044;-70
2021/06/06 02:58:41;;;;;;;15.95;14.38;;;17.90;99.90;;;;;;2064585;28;20089;-70
2021/06/06 02:59:47;;;;;;;19.60;17.48;;;17.90;99.90;;;;;;2064849;28;20022;-70
2021/06/06 03:01:03;;;;;;;18.77;16.77;;;17.90;99.90;;;;;;2064896;28;20038;-70
2021/06/06 03:02:14;;;;;;;17.42;15.60;;;17.90;99.90;;;;;;2065249;28;20093;-70
2021/06/06 03:03:32;;;;;;;16.20;14.70;;;17.90;99.90;;;;;;2065463;28;20041;-71
2021/06/06 03:04:48;;;;;;;17.52;15.82;;;17.90;99.90;;;;;;2062548;28;20022;-70
2021/06/06 03:05:51;;;;;;;16.85;15.07;;;17.90;99.90;;;;;;2048590;28;20118;-70
2021/06/06 03:07:01;;;;;;;18.25;16.35;;;17.90;99.90;;;;;;2056908;28;20430;-70
2021/06/06 03:08:05;;;;;;;17.75;15.55;;;17.90;99.90;;;;;;2056314;28;20082;-69
2021/06/06 03:09:10;;;;;;;15.77;14.27;;;17.90;99.90;;;;;;2057134;28;20030;-71
2021/06/06 03:10:15;;;;;;;15.75;14.25;;;17.90;99.90;;;;;;2056917;28;20023;-71
2021/06/06 03:11:19;;;;;;;15.70;14.20;;;17.90;99.90;;;;;;2056963;28;20498;-71
2021/06/06 03:12:24;;;;;;;16.60;14.90;;;17.90;99.90;;;;;;2057258;28;20054;-72
2021/06/06 03:13:30;;;;;;;17.70;15.90;;;17.90;99.90;;;;;;2057149;28;20026;-71
2021/06/06 03:14:35;;;;;;;16.42;14.82;;;17.90;99.90;;;;;;2048043;29;20031;-71
2021/06/06 03:15:46;;;;;;;;;;;17.90;99.90;;;;;;2050560;28;20028;-69
2021/06/06 03:17:06;;;;;;;16.45;14.85;;;17.90;99.90;;;;;;2055260;28;19950;-70
2021/06/06 03:18:09;;;;;;;16.25;14.65;;;17.90;99.90;;;;;;2048074;29;20542;-71
2021/06/06 03:19:10;;;;;;;16.02;14.52;;;17.90;99.90;;;;;;2040189;29;20031;-71
2021/06/06 03:20:18;;;;;;;16.95;15.30;;;17.90;99.90;;;;;;2048190;28;20207;-70
2021/06/06 03:21:38;;;;;;;16.35;14.75;;;17.90;99.90;;;;;;2056760;28;20066;-71
2021/06/06 03:22:41;;;;;;;17.48;15.68;;;17.90;99.90;;;;;;2056174;28;20031;-71
2021/06/06 03:23:57;;;;;;;16.10;14.57;;;17.90;99.90;;;;;;2055765;28;20030;-71
2021/06/06 03:25:08;;;;;;;16.50;14.90;;;17.90;99.90;;;;;;2049686;28;20034;-70
2021/06/06 03:26:13;;;;;;;16.77;15.07;;;17.90;99.90;;;;;;2056222;28;20030;-70
2021/06/06 03:27:32;;;;;;;18.90;16.98;;;18.00;99.90;;;;;;2055775;28;20093;-70
2021/06/06 03:28:37;;;;;;;18.45;16.63;;;17.90;99.90;;;;;;2048232;29;20019;-69
2021/06/06 03:30:09;;;;;;;18.25;16.35;;;18.00;99.90;;;;;;2047624;29;20059;-71
2021/06/06 03:31:28;;;;;;;16.77;15.15;;;18.00;99.90;;;;;;2031492;29;20064;-71
2021/06/06 03:32:35;;;;;;;18.85;16.85;;;18.00;99.90;;;;;;2034531;29;20107;-71
2021/06/06 03:33:45;;;;;;;16.38;14.77;;;18.00;99.90;;;;;;2040572;29;20558;-71
2021/06/06 03:34:49;;;;;;;17.47;15.73;;;18.00;99.90;;;;;;2049491;28;20498;-71
2021/06/06 03:35:50;;;;;;;17.27;15.57;;;18.00;99.90;;;;;;2055465;28;20270;-72
2021/06/06 03:36:53;;;;;;;16.70;14.85;;;18.00;99.90;;;;;;2055147;28;20037;-70
2021/06/06 03:38:17;;;;;;;16.33;14.73;;;18.00;99.90;;;;;;2055616;28;20062;-70
2021/06/06 03:39:27;;;;;;;16.83;15.10;;;18.10;99.90;;;;;;2047452;29;20039;-70
2021/06/06 03:40:36;;;;;;;16.95;15.25;;;18.10;99.90;;;;;;2048921;28;20205;-71
2021/06/06 03:41:51;;;;;;;15.75;14.15;;;18.10;99.90;;;;;;2047658;29;20423;-71
2021/06/06 03:42:52;;;;;;;15.88;14.38;;;18.20;99.90;;;;;;2041631;29;20055;-70
2021/06/06 03:43:55;;;;;;;17.15;15.35;;;18.20;99.90;;;;;;2047739;28;20031;-72
2021/06/06 03:44:56;;;;;;;19.58;17.55;;;18.20;99.90;;;;;;2055474;28;20019;-71
2021/06/06 03:45:59;;;;;;;17.90;15.50;;;18.20;99.90;;;;;;2056264;28;20027;-72
2021/06/06 03:47:06;;;;;;;18.27;16.38;;;18.20;99.90;;;;;;2047545;29;20027;-71
2021/06/06 03:48:09;;;;;;;16.83;15.20;;;18.20;99.90;;;;;;2040278;29;20499;-71
2021/06/06 03:49:12;;;;;;;17.30;15.50;;;18.20;99.90;;;;;;2048165;28;20027;-70
2021/06/06 03:50:21;;;;;;;17.35;15.55;;;18.30;99.90;;;;;;2047517;29;20031;-71
2021/06/06 03:51:25;;;;;;;17.95;15.65;;;18.30;99.90;;;;;;2048626;28;20047;-71
2021/06/06 03:52:26;;;;;;;16.73;15.05;;;18.30;99.90;;;;;;2047783;29;20027;-71
2021/06/06 03:53:28;;;;;;;17.38;15.68;;;18.30;99.90;;;;;;2047732;29;20032;-71
2021/06/06 03:54:33;;;;;;;21.88;19.52;;;18.30;99.90;;;;;;2046854;29;20035;-71
2021/06/06 03:55:35;;;;;;;19.67;17.67;;;18.30;99.90;;;;;;2047965;28;20074;-71
2021/06/06 03:56:45;;;;;;;20.38;18.38;;;18.40;99.90;;;;;;2047629;29;20510;-71
2021/06/06 03:57:48;;;;;;;18.13;16.33;;;18.40;99.90;;;;;;2047673;29;20019;-70
2021/06/06 03:58:53;;;;;;;17.58;15.75;;;18.40;99.90;;;;;;2039610;29;20039;-70
2021/06/06 03:59:55;;;;;;;27.60;17.45;;;18.40;99.90;;;;;;2039926;29;20035;-70
2021/06/06 04:01:00;;;;;;;20.95;18.73;;;18.40;99.90;;;;;;2048185;28;20027;-70
2021/06/06 04:02:05;;;;;;;23.85;21.38;;;18.40;99.90;;;;;;2047633;29;20035;-70
2021/06/06 04:03:10;;;;;;;27.27;24.17;;;18.40;99.90;;;;;;2048214;28;20511;-70
2021/06/06 04:04:16;;;;;;;27.60;24.08;;;18.40;99.90;;;;;;2055506;28;20070;-71
2021/06/06 04:05:19;;;;;;;24.92;22.33;;;18.40;99.90;;;;;;2050410;28;20403;-71
2021/06/06 04:06:24;;;;;;;22.48;20.17;;;18.40;99.90;;;;;;2058847;28;20026;-70
2021/06/06 04:07:25;;;;;;;19.65;17.65;;;18.30;99.90;;;;;;2055265;28;20234;-70
2021/06/06 04:08:26;;;;;;;19.35;17.45;;;18.40;99.90;;;;;;2063818;28;20030;-71
2021/06/06 04:09:37;;;;;;;16.73;15.07;;;18.40;99.90;;;;;;2064147;28;20034;-70
2021/06/06 04:10:39;;;;;;;17.65;15.95;;;18.40;99.90;;;;;;2064276;28;20023;-71
2021/06/06 04:11:41;;;;;;;17.98;16.17;;;18.50;99.90;;;;;;2055467;28;20055;-71
2021/06/06 04:12:51;;;;;;;21.50;19.23;;;18.50;99.90;;;;;;2056586;28;20027;-70
2021/06/06 04:13:55;;;;;;;21.42;19.15;;;18.50;99.90;;;;;;2055657;28;20026;-71
2021/06/06 04:15:00;;;;;;;22.17;19.83;;;18.60;99.50;;;;;;2054958;28;20061;-71
2021/06/06 04:16:02;;;;;;;20.40;18.30;;;18.60;99.30;;;;;;2047477;28;20027;-70
2021/06/06 04:17:03;;;;;;;20.42;17.92;;;18.70;99.30;;;;;;2047784;28;20031;-71
2021/06/06 04:18:15;;;;;;;17.77;16.05;;;18.70;99.30;;;;;;2047759;28;20063;-71
2021/06/06 04:19:17;;;;;;;18.15;16.35;;;18.70;99.30;;;;;;2048471;28;20028;-71
2021/06/06 04:20:20;;;;;;;18.13;16.33;;;18.70;99.30;;;;;;2055469;28;20030;-70
2021/06/06 04:21:24;;;;;;;20.58;18.38;;;18.70;99.30;;;;;;2064003;28;20026;-70
2021/06/06 04:22:25;;;;;;;19.77;17.75;;;18.70;99.30;;;;;;2055353;28;20078;-70
2021/06/06 04:23:26;;;;;;;19.70;17.60;;;18.70;99.30;;;;;;2055389;28;20023;-70
2021/06/06 04:24:27;;;;;;;18.58;16.67;;;18.70;99.40;;;;;;2063359;28;20344;-71
2021/06/06 04:25:29;;;;;;;18.95;17.05;;;18.70;99.40;;;;;;2064124;28;20426;-70
2021/06/06 04:26:32;;;;;;;19.25;17.35;;;18.70;99.30;;;;;;2064203;28;20454;-71
2021/06/06 04:27:34;;;;;;;19.00;17.10;;;18.70;99.20;;;;;;2055138;28;20031;-70
2021/06/06 04:28:38;;;;;;;20.75;17.35;;;18.80;99.20;;;;;;2055769;28;20018;-70
2021/06/06 04:29:45;;;;;;;18.70;16.80;;;18.80;99.20;;;;;;2063125;28;20038;-71
2021/06/06 04:30:46;;;;;;;17.92;16.02;;;18.80;99.10;;;;;;2063411;28;20080;-71
2021/06/06 04:31:47;;;;;;;18.25;16.40;;;18.90;99.00;;;;;;2055270;28;20129;-71
2021/06/06 04:32:52;;;;;;;19.13;17.23;;;18.90;98.90;;;;;;2056073;28;20065;-70
2021/06/06 04:33:53;;;;;;;20.77;18.63;;;19.00;98.80;;;;;;2063945;28;20029;-71
2021/06/06 04:34:55;;;;;;;19.52;17.55;;;19.00;98.50;;;;;;2052295;28;20054;-70
2021/06/06 04:35:56;;;;;;;18.83;16.85;;;19.10;98.40;;;;;;2055369;28;20026;-70
2021/06/06 04:36:57;;;;;;;18.00;16.20;;;19.10;98.20;;;;;;2063987;28;20038;-71
2021/06/06 04:38:01;;;;;;;18.05;16.25;;;19.10;98.10;;;;;;2055279;28;20178;-70
2021/06/06 04:39:04;;;;;;;18.08;16.23;;;19.20;98.00;;;;;;2055393;28;20062;-71
2021/06/06 04:40:11;;;;;;;17.05;15.35;;;19.20;97.80;;;;;;2047298;29;20031;-70
2021/06/06 04:41:14;;;;;;;17.17;15.40;;;19.20;97.70;;;;;;2048385;28;20074;-71
2021/06/06 04:42:19;;;;;;;16.42;14.82;;;19.30;97.60;;;;;;2047483;28;20039;-70
2021/06/06 04:43:22;;;;;;;14.98;13.57;;;19.30;97.40;;;;;;2055935;28;20085;-70
2021/06/06 04:44:23;;;;;;;17.38;15.68;;;19.30;97.30;;;;;;2062630;28;20027;-71
2021/06/06 04:45:28;;;;;;;16.38;14.77;;;19.30;97.20;;;;;;2047329;29;20027;-70
2021/06/06 04:46:31;;;;;;;17.42;15.68;;;19.40;97.10;;;;;;2048728;28;20046;-71
2021/06/06 04:47:33;;;;;;;17.38;15.57;;;19.40;96.90;;;;;;2063289;28;20525;-71
2021/06/06 04:48:38;;;;;;;15.68;14.18;;;19.50;96.80;;;;;;2063385;28;20084;-70
2021/06/06 04:49:41;;;;;;;16.42;14.82;;;19.50;96.60;;;;;;2063376;28;20434;-70
2021/06/06 04:50:45;;;;;;;15.57;14.07;;;19.60;96.50;;;;;;2055350;28;20035;-72
2021/06/06 04:51:46;;;;;;;14.98;13.48;;;19.60;96.30;;;;;;2055434;28;20508;-71
2021/06/06 04:52:51;;;;;;;14.88;13.48;;;19.70;96.20;;;;;;2063670;28;20018;-71
2021/06/06 04:53:54;;;;;;;15.02;13.50;;;19.80;95.90;;;;;;2063243;28;20461;-71
2021/06/06 04:54:57;;;;;;;17.15;15.45;;;19.90;95.80;;;;;;2063056;28;20513;-71
2021/06/06 04:56:00;;;;;;;16.50;14.80;;;20.00;95.50;;;;;;2064227;28;20026;-70
2021/06/06 04:57:06;;;;;;;15.52;13.93;;;20.10;95.10;;;;;;2055312;28;20043;-71
2021/06/06 04:58:15;;;;;;;14.70;13.20;;;20.20;94.80;;;;;;2055381;28;20449;-71
2021/06/06 04:59:17;;;;;;;13.63;12.32;;;20.30;94.40;;;;;;2056229;28;20035;-71
2021/06/06 05:00:23;;;;;;;15.10;13.60;;;20.50;94.30;;;;;;2063601;28;20026;-70
2021/06/06 05:01:25;;;;;;;15.32;13.82;;;20.70;93.90;;;;;;2055439;28;20030;-70
2021/06/06 05:02:27;;;;;;;13.23;12.02;;;20.90;93.30;;;;;;2055591;28;20018;-71
2021/06/06 05:03:32;;;;;;;13.23;11.88;;;21.10;92.70;;;;;;2064190;28;20026;-71
2021/06/06 05:04:34;;;;;;;12.43;11.23;;;21.40;92.10;;;;;;2063176;28;20030;-71
2021/06/06 05:05:39;;;;;;;12.70;11.40;;;21.60;91.40;;;;;;2052833;28;20546;-71
2021/06/06 05:06:43;;;;;;;13.02;11.82;;;21.80;91.10;;;;;;2061533;28;20033;-70
2021/06/06 05:07:55;;;;;;;12.63;11.50;;;22.10;90.00;;;;;;2055925;28;20030;-71
2021/06/06 05:08:56;;;;;;;12.23;11.13;;;22.40;88.40;;;;;;2056051;28;20050;-70
2021/06/06 05:09:59;;;;;;;12.15;10.90;;;22.70;86.80;;;;;;2063694;28;20018;-70
2021/06/06 05:11:05;;;;;;;11.90;10.80;;;23.00;85.10;;;;;;2064014;28;20105;-71
2021/06/06 05:12:10;;;;;;;11.75;10.65;;;23.30;83.10;;;;;;2063968;28;20379;-71
2021/06/06 05:13:14;;;;;;;10.73;9.73;;;23.60;81.80;;;;;;2064096;28;20065;-71
2021/06/06 05:14:20;;;;;;;12.27;11.07;;;23.90;80.00;;;;;;2063188;28;20098;-70
2021/06/06 05:15:26;;;;;;;11.10;10.10;;;24.20;78.00;;;;;;2055300;28;20026;-70
2021/06/06 05:16:29;;;;;;;12.20;11.00;;;24.50;76.70;;;;;;2055541;28;20023;-70
2021/06/06 05:17:33;;;;;;;12.15;11.05;;;24.70;75.40;;;;;;2063380;28;20050;-70
2021/06/06 05:18:34;;;;;;;11.52;10.50;;;24.80;74.50;;;;;;2063826;28;20050;-70
2021/06/06 05:19:39;;;;;;;11.60;10.50;;;24.90;73.50;;;;;;2063151;28;20498;-70
2021/06/06 05:20:46;;;;;;;10.32;9.30;;;25.10;72.70;;;;;;2063524;28;20061;-69
2021/06/06 05:21:46;;;;;;;12.60;11.25;;;25.30;71.90;;;;;;2055700;28;20525;-69
2021/06/06 05:22:50;;;;;;;11.50;10.50;;;25.40;70.40;;;;;;2056258;28;20023;-69
2021/06/06 05:23:52;;;;;;;10.40;9.50;;;25.50;70.10;;;;;;2063843;28;20073;-69
2021/06/06 05:24:54;;;;;;;9.52;8.63;;;25.60;69.70;;;;;;2054772;28;20557;-69
2021/06/06 05:25:58;;;;;;;9.05;8.20;;;25.80;69.20;;;;;;2048129;28;20049;-68
2021/06/06 05:26:58;;;;;;;12.30;11.10;;;26.00;68.40;;;;;;2047668;29;20039;-69
2021/06/06 05:27:59;;;;;;;10.20;9.20;;;26.10;67.10;;;;;;2057013;28;20035;-69
2021/06/06 05:29:00;;;;;;;10.52;9.43;;;26.10;67.00;;;;;;2067082;28;20031;-69
2021/06/06 05:30:01;;;;;;;13.10;11.82;;;26.10;66.90;;;;;;2058099;28;20038;-70
2021/06/06 05:31:03;;;;;;;11.07;9.95;;;26.10;66.10;;;;;;2058113;28;20102;-70
2021/06/06 05:32:06;;;;;;;10.20;9.00;;;26.00;66.60;;;;;;2058719;28;20500;-70
2021/06/06 05:33:07;;;;;;;9.57;8.73;;;26.10;66.50;;;;;;2058820;28;20039;-70
2021/06/06 05:34:08;;;;;;;11.02;9.93;;;26.20;66.10;;;;;;2057751;28;20062;-70
2021/06/06 05:35:09;;;;;;;11.23;10.13;;;26.30;65.70;;;;;;2054922;28;20082;-70
2021/06/06 05:36:11;;;;;;;10.30;9.27;;;26.30;65.20;;;;;;2060144;28;20022;-70
2021/06/06 05:37:13;;;;;;;9.05;8.25;;;26.30;65.40;;;;;;2065604;28;20474;-69
2021/06/06 05:38:15;;;;;;;10.57;9.52;;;26.50;64.90;;;;;;2065499;28;20057;-70
2021/06/06 05:39:16;;;;;;;10.98;8.82;;;26.70;63.80;;;;;;2065426;28;20038;-70
2021/06/06 05:40:17;;;;;;;10.82;9.73;;;26.80;63.80;;;;;;2065329;28;20061;-70